sensor_id;sensor_type;location;lat;lon;timestamp;P1;durP1;ratioP1;P2;durP2;ratioP2
32080;SDS011;18593;51.426;7.030;2023-07-13T00:02:06;8.57;;;1.85;;
32080;SDS011;18593;51.426;7.030;2023-07-13T00:04:34;7.03;;;1.63;;
32080;SDS011;18593;51.426;7.030;2023-07-13T00:07:01;7.60;;;2.10;;
32080;SDS011;18593;51.426;7.030;2023-07-13T00:09:30;5.82;;;1.90;;
32080;SDS011;18593;51.426;7.030;2023-07-13T00:11:57;8.20;;;1.73;;
32080;SDS011;18593;51.426;7.030;2023-07-13T00:14:25;5.07;;;1.98;;
32080;SDS011;18593;51.426;7.030;2023-07-13T00:16:55;6.15;;;1.90;;
32080;SDS011;18593;51.426;7.030;2023-07-13T00:19:22;4.88;;;1.63;;
32080;SDS011;18593;51.426;7.030;2023-07-13T00:21:49;7.03;;;1.83;;
32080;SDS011;18593;51.426;7.030;2023-07-13T00:24:20;7.20;;;1.92;;
32080;SDS011;18593;51.426;7.030;2023-07-13T00:26:50;6.88;;;1.92;;
32080;SDS011;18593;51.426;7.030;2023-07-13T00:29:18;6.45;;;1.80;;
32080;SDS011;18593;51.426;7.030;2023-07-13T00:31:46;7.75;;;2.22;;
32080;SDS011;18593;51.426;7.030;2023-07-13T00:34:13;6.05;;;1.85;;
32080;SDS011;18593;51.426;7.030;2023-07-13T00:36:40;4.32;;;1.65;;
32080;SDS011;18593;51.426;7.030;2023-07-13T00:39:08;4.80;;;1.42;;
32080;SDS011;18593;51.426;7.030;2023-07-13T00:41:35;5.75;;;1.67;;
32080;SDS011;18593;51.426;7.030;2023-07-13T00:44:04;6.90;;;1.35;;
32080;SDS011;18593;51.426;7.030;2023-07-13T00:46:35;3.67;;;1.50;;
32080;SDS011;18593;51.426;7.030;2023-07-13T00:49:03;6.68;;;1.63;;
32080;SDS011;18593;51.426;7.030;2023-07-13T00:54:05;5.72;;;1.65;;
32080;SDS011;18593;51.426;7.030;2023-07-13T00:56:38;4.68;;;1.60;;
32080;SDS011;18593;51.426;7.030;2023-07-13T00:59:09;6.72;;;1.60;;
32080;SDS011;18593;51.426;7.030;2023-07-13T01:01:38;5.28;;;1.33;;
32080;SDS011;18593;51.426;7.030;2023-07-13T01:04:05;6.18;;;1.75;;
32080;SDS011;18593;51.426;7.030;2023-07-13T01:06:33;4.60;;;1.77;;
32080;SDS011;18593;51.426;7.030;2023-07-13T01:09:01;7.05;;;1.83;;
32080;SDS011;18593;51.426;7.030;2023-07-13T01:11:30;8.77;;;1.92;;
32080;SDS011;18593;51.426;7.030;2023-07-13T01:13:57;8.15;;;1.60;;
32080;SDS011;18593;51.426;7.030;2023-07-13T01:16:28;6.28;;;1.58;;
32080;SDS011;18593;51.426;7.030;2023-07-13T01:18:59;6.00;;;1.55;;
32080;SDS011;18593;51.426;7.030;2023-07-13T01:21:29;6.45;;;1.70;;
32080;SDS011;18593;51.426;7.030;2023-07-13T01:23:59;6.50;;;1.73;;
32080;SDS011;18593;51.426;7.030;2023-07-13T01:26:27;5.97;;;1.75;;
32080;SDS011;18593;51.426;7.030;2023-07-13T01:28:54;6.28;;;1.40;;
32080;SDS011;18593;51.426;7.030;2023-07-13T01:31:22;6.63;;;1.80;;
32080;SDS011;18593;51.426;7.030;2023-07-13T01:33:50;7.90;;;1.52;;
32080;SDS011;18593;51.426;7.030;2023-07-13T01:36:19;5.45;;;1.70;;
32080;SDS011;18593;51.426;7.030;2023-07-13T01:38:48;6.43;;;1.80;;
32080;SDS011;18593;51.426;7.030;2023-07-13T01:41:16;7.65;;;1.65;;
32080;SDS011;18593;51.426;7.030;2023-07-13T01:43:45;8.85;;;1.65;;
32080;SDS011;18593;51.426;7.030;2023-07-13T01:46:12;4.15;;;1.48;;
32080;SDS011;18593;51.426;7.030;2023-07-13T01:48:39;6.65;;;1.48;;
32080;SDS011;18593;51.426;7.030;2023-07-13T01:51:07;7.43;;;1.88;;
32080;SDS011;18593;51.426;7.030;2023-07-13T01:53:34;5.57;;;1.50;;
32080;SDS011;18593;51.426;7.030;2023-07-13T01:56:03;6.68;;;1.63;;
32080;SDS011;18593;51.426;7.030;2023-07-13T01:58:31;6.53;;;1.75;;
32080;SDS011;18593;51.426;7.030;2023-07-13T02:00:58;9.32;;;1.88;;
32080;SDS011;18593;51.426;7.030;2023-07-13T02:03:27;7.15;;;2.03;;
32080;SDS011;18593;51.426;7.030;2023-07-13T02:05:57;7.05;;;2.00;;
32080;SDS011;18593;51.426;7.030;2023-07-13T02:08:24;5.93;;;1.65;;
32080;SDS011;18593;51.426;7.030;2023-07-13T02:10:52;5.60;;;1.50;;
32080;SDS011;18593;51.426;7.030;2023-07-13T02:13:21;5.05;;;1.58;;
32080;SDS011;18593;51.426;7.030;2023-07-13T02:15:49;6.85;;;2.25;;
32080;SDS011;18593;51.426;7.030;2023-07-13T02:18:17;6.78;;;1.70;;
32080;SDS011;18593;51.426;7.030;2023-07-13T02:20:45;6.60;;;1.73;;
32080;SDS011;18593;51.426;7.030;2023-07-13T02:23:12;3.38;;;1.35;;
32080;SDS011;18593;51.426;7.030;2023-07-13T02:25:39;6.40;;;1.63;;
32080;SDS011;18593;51.426;7.030;2023-07-13T02:28:07;6.28;;;1.45;;
32080;SDS011;18593;51.426;7.030;2023-07-13T02:30:36;5.97;;;1.50;;
32080;SDS011;18593;51.426;7.030;2023-07-13T02:33:04;4.57;;;1.58;;
32080;SDS011;18593;51.426;7.030;2023-07-13T02:35:31;7.07;;;2.25;;
32080;SDS011;18593;51.426;7.030;2023-07-13T02:37:59;13.00;;;1.98;;
32080;SDS011;18593;51.426;7.030;2023-07-13T02:40:26;7.18;;;1.73;;
32080;SDS011;18593;51.426;7.030;2023-07-13T02:42:53;4.70;;;1.42;;
32080;SDS011;18593;51.426;7.030;2023-07-13T02:45:20;8.65;;;1.95;;
32080;SDS011;18593;51.426;7.030;2023-07-13T02:47:49;6.47;;;1.70;;
32080;SDS011;18593;51.426;7.030;2023-07-13T02:50:17;7.28;;;1.85;;
32080;SDS011;18593;51.426;7.030;2023-07-13T02:52:44;5.05;;;1.48;;
32080;SDS011;18593;51.426;7.030;2023-07-13T02:55:11;5.70;;;1.60;;
32080;SDS011;18593;51.426;7.030;2023-07-13T02:57:40;12.98;;;1.77;;
32080;SDS011;18593;51.426;7.030;2023-07-13T03:00:07;7.25;;;1.73;;
32080;SDS011;18593;51.426;7.030;2023-07-13T03:02:36;7.28;;;1.60;;
32080;SDS011;18593;51.426;7.030;2023-07-13T03:05:05;4.32;;;1.38;;
32080;SDS011;18593;51.426;7.030;2023-07-13T03:07:38;6.88;;;1.98;;
32080;SDS011;18593;51.426;7.030;2023-07-13T03:10:06;6.68;;;1.70;;
32080;SDS011;18593;51.426;7.030;2023-07-13T03:12:41;7.15;;;1.60;;
32080;SDS011;18593;51.426;7.030;2023-07-13T03:15:16;7.53;;;2.35;;
32080;SDS011;18593;51.426;7.030;2023-07-13T03:17:45;7.22;;;1.80;;
32080;SDS011;18593;51.426;7.030;2023-07-13T03:20:15;6.82;;;1.60;;
32080;SDS011;18593;51.426;7.030;2023-07-13T03:22:43;8.68;;;2.35;;
32080;SDS011;18593;51.426;7.030;2023-07-13T03:25:11;7.47;;;1.90;;
32080;SDS011;18593;51.426;7.030;2023-07-13T03:27:38;5.90;;;1.92;;
32080;SDS011;18593;51.426;7.030;2023-07-13T03:30:08;7.90;;;1.50;;
32080;SDS011;18593;51.426;7.030;2023-07-13T03:32:36;5.07;;;1.60;;
32080;SDS011;18593;51.426;7.030;2023-07-13T03:35:04;7.50;;;1.85;;
32080;SDS011;18593;51.426;7.030;2023-07-13T03:37:33;8.00;;;1.90;;
32080;SDS011;18593;51.426;7.030;2023-07-13T03:40:09;8.18;;;1.85;;
32080;SDS011;18593;51.426;7.030;2023-07-13T03:42:42;7.95;;;1.73;;
32080;SDS011;18593;51.426;7.030;2023-07-13T03:45:10;9.55;;;1.92;;
32080;SDS011;18593;51.426;7.030;2023-07-13T03:47:37;10.68;;;2.33;;
32080;SDS011;18593;51.426;7.030;2023-07-13T03:50:05;8.18;;;2.00;;
32080;SDS011;18593;51.426;7.030;2023-07-13T03:52:35;5.70;;;1.60;;
32080;SDS011;18593;51.426;7.030;2023-07-13T03:55:03;6.60;;;1.80;;
32080;SDS011;18593;51.426;7.030;2023-07-13T03:57:31;5.00;;;1.80;;
32080;SDS011;18593;51.426;7.030;2023-07-13T04:00:00;8.35;;;2.00;;
32080;SDS011;18593;51.426;7.030;2023-07-13T04:02:29;6.60;;;1.95;;
32080;SDS011;18593;51.426;7.030;2023-07-13T04:04:56;6.88;;;1.70;;
32080;SDS011;18593;51.426;7.030;2023-07-13T04:07:24;5.00;;;1.80;;
32080;SDS011;18593;51.426;7.030;2023-07-13T04:09:53;9.30;;;1.98;;
32080;SDS011;18593;51.426;7.030;2023-07-13T04:12:20;14.00;;;1.90;;
32080;SDS011;18593;51.426;7.030;2023-07-13T04:14:48;8.20;;;1.90;;
32080;SDS011;18593;51.426;7.030;2023-07-13T04:17:15;8.75;;;2.40;;
32080;SDS011;18593;51.426;7.030;2023-07-13T04:19:42;6.82;;;1.80;;
32080;SDS011;18593;51.426;7.030;2023-07-13T04:22:09;7.90;;;1.90;;
32080;SDS011;18593;51.426;7.030;2023-07-13T04:24:37;8.48;;;2.42;;
32080;SDS011;18593;51.426;7.030;2023-07-13T04:27:06;9.38;;;1.80;;
32080;SDS011;18593;51.426;7.030;2023-07-13T04:29:33;8.35;;;1.92;;
32080;SDS011;18593;51.426;7.030;2023-07-13T04:32:00;8.90;;;2.00;;
32080;SDS011;18593;51.426;7.030;2023-07-13T04:34:28;6.97;;;1.60;;
32080;SDS011;18593;51.426;7.030;2023-07-13T04:36:55;5.18;;;1.90;;
32080;SDS011;18593;51.426;7.030;2023-07-13T04:39:22;8.48;;;2.05;;
32080;SDS011;18593;51.426;7.030;2023-07-13T04:41:50;7.15;;;2.10;;
32080;SDS011;18593;51.426;7.030;2023-07-13T04:44:18;8.73;;;2.03;;
32080;SDS011;18593;51.426;7.030;2023-07-13T04:46:45;9.15;;;1.85;;
32080;SDS011;18593;51.426;7.030;2023-07-13T04:49:13;8.88;;;2.13;;
32080;SDS011;18593;51.426;7.030;2023-07-13T04:51:40;6.75;;;1.67;;
32080;SDS011;18593;51.426;7.030;2023-07-13T04:54:07;7.05;;;2.08;;
32080;SDS011;18593;51.426;7.030;2023-07-13T04:56:34;8.30;;;1.90;;
32080;SDS011;18593;51.426;7.030;2023-07-13T04:59:02;8.20;;;1.73;;
32080;SDS011;18593;51.426;7.030;2023-07-13T05:01:30;7.10;;;1.90;;
32080;SDS011;18593;51.426;7.030;2023-07-13T05:03:58;8.68;;;1.77;;
32080;SDS011;18593;51.426;7.030;2023-07-13T05:06:25;8.32;;;2.13;;
32080;SDS011;18593;51.426;7.030;2023-07-13T05:08:52;7.10;;;2.03;;
32080;SDS011;18593;51.426;7.030;2023-07-13T05:11:20;9.93;;;2.15;;
32080;SDS011;18593;51.426;7.030;2023-07-13T05:13:47;10.18;;;2.00;;
32080;SDS011;18593;51.426;7.030;2023-07-13T05:16:14;9.88;;;2.28;;
32080;SDS011;18593;51.426;7.030;2023-07-13T05:18:43;9.57;;;1.83;;
32080;SDS011;18593;51.426;7.030;2023-07-13T05:21:10;7.93;;;2.03;;
32080;SDS011;18593;51.426;7.030;2023-07-13T05:23:38;7.43;;;2.05;;
32080;SDS011;18593;51.426;7.030;2023-07-13T05:26:06;8.52;;;1.95;;
32080;SDS011;18593;51.426;7.030;2023-07-13T05:28:34;10.63;;;2.28;;
32080;SDS011;18593;51.426;7.030;2023-07-13T05:31:01;7.35;;;2.10;;
32080;SDS011;18593;51.426;7.030;2023-07-13T05:33:28;11.02;;;2.33;;
32080;SDS011;18593;51.426;7.030;2023-07-13T05:35:57;7.55;;;2.05;;
32080;SDS011;18593;51.426;7.030;2023-07-13T05:38:25;8.88;;;2.35;;
32080;SDS011;18593;51.426;7.030;2023-07-13T05:40:53;10.73;;;2.90;;
32080;SDS011;18593;51.426;7.030;2023-07-13T05:43:22;8.00;;;1.98;;
32080;SDS011;18593;51.426;7.030;2023-07-13T05:45:51;10.82;;;2.85;;
32080;SDS011;18593;51.426;7.030;2023-07-13T05:48:19;12.70;;;2.63;;
32080;SDS011;18593;51.426;7.030;2023-07-13T05:50:46;11.93;;;2.83;;
32080;SDS011;18593;51.426;7.030;2023-07-13T05:53:15;10.73;;;2.67;;
32080;SDS011;18593;51.426;7.030;2023-07-13T05:55:43;9.07;;;2.75;;
32080;SDS011;18593;51.426;7.030;2023-07-13T05:58:13;10.57;;;2.47;;
32080;SDS011;18593;51.426;7.030;2023-07-13T06:00:40;11.43;;;2.13;;
32080;SDS011;18593;51.426;7.030;2023-07-13T06:03:07;8.23;;;2.05;;
32080;SDS011;18593;51.426;7.030;2023-07-13T06:05:35;9.75;;;2.75;;
32080;SDS011;18593;51.426;7.030;2023-07-13T06:08:04;9.50;;;2.33;;
32080;SDS011;18593;51.426;7.030;2023-07-13T06:10:34;11.80;;;2.53;;
32080;SDS011;18593;51.426;7.030;2023-07-13T06:13:02;8.90;;;2.78;;
32080;SDS011;18593;51.426;7.030;2023-07-13T06:15:29;12.27;;;2.67;;
32080;SDS011;18593;51.426;7.030;2023-07-13T06:17:57;11.80;;;2.58;;
32080;SDS011;18593;51.426;7.030;2023-07-13T06:20:24;10.55;;;2.70;;
32080;SDS011;18593;51.426;7.030;2023-07-13T06:22:51;11.77;;;2.92;;
32080;SDS011;18593;51.426;7.030;2023-07-13T06:25:19;17.23;;;2.72;;
32080;SDS011;18593;51.426;7.030;2023-07-13T06:27:47;11.43;;;3.10;;
32080;SDS011;18593;51.426;7.030;2023-07-13T06:30:15;13.20;;;3.28;;
32080;SDS011;18593;51.426;7.030;2023-07-13T06:32:42;12.02;;;3.00;;
32080;SDS011;18593;51.426;7.030;2023-07-13T06:35:09;9.25;;;2.65;;
32080;SDS011;18593;51.426;7.030;2023-07-13T06:37:38;13.60;;;3.35;;
32080;SDS011;18593;51.426;7.030;2023-07-13T06:40:06;16.73;;;2.83;;
32080;SDS011;18593;51.426;7.030;2023-07-13T06:42:35;10.60;;;2.67;;
32080;SDS011;18593;51.426;7.030;2023-07-13T06:45:05;13.60;;;3.22;;
32080;SDS011;18593;51.426;7.030;2023-07-13T06:47:34;8.17;;;2.97;;
32080;SDS011;18593;51.426;7.030;2023-07-13T06:50:01;16.00;;;3.80;;
32080;SDS011;18593;51.426;7.030;2023-07-13T06:52:29;10.98;;;3.67;;
32080;SDS011;18593;51.426;7.030;2023-07-13T06:54:56;13.35;;;3.40;;
32080;SDS011;18593;51.426;7.030;2023-07-13T06:57:23;12.73;;;3.65;;
32080;SDS011;18593;51.426;7.030;2023-07-13T06:59:51;9.25;;;3.60;;
32080;SDS011;18593;51.426;7.030;2023-07-13T07:02:20;8.38;;;2.90;;
32080;SDS011;18593;51.426;7.030;2023-07-13T07:04:47;13.57;;;3.28;;
32080;SDS011;18593;51.426;7.030;2023-07-13T07:07:15;11.85;;;2.78;;
32080;SDS011;18593;51.426;7.030;2023-07-13T07:09:42;12.05;;;3.22;;
32080;SDS011;18593;51.426;7.030;2023-07-13T07:12:09;11.38;;;3.15;;
32080;SDS011;18593;51.426;7.030;2023-07-13T07:14:37;13.50;;;3.35;;
32080;SDS011;18593;51.426;7.030;2023-07-13T07:17:04;13.38;;;3.40;;
32080;SDS011;18593;51.426;7.030;2023-07-13T07:19:33;10.45;;;2.92;;
32080;SDS011;18593;51.426;7.030;2023-07-13T07:22:02;20.75;;;3.25;;
32080;SDS011;18593;51.426;7.030;2023-07-13T07:24:29;9.65;;;2.90;;
32080;SDS011;18593;51.426;7.030;2023-07-13T07:26:57;8.98;;;3.53;;
32080;SDS011;18593;51.426;7.030;2023-07-13T07:29:24;11.48;;;2.90;;
32080;SDS011;18593;51.426;7.030;2023-07-13T07:31:53;12.27;;;3.08;;
32080;SDS011;18593;51.426;7.030;2023-07-13T07:34:20;9.00;;;2.60;;
32080;SDS011;18593;51.426;7.030;2023-07-13T07:36:49;9.18;;;2.80;;
32080;SDS011;18593;51.426;7.030;2023-07-13T07:39:16;10.02;;;2.80;;
32080;SDS011;18593;51.426;7.030;2023-07-13T07:41:43;13.00;;;3.40;;
32080;SDS011;18593;51.426;7.030;2023-07-13T07:44:10;17.83;;;3.45;;
32080;SDS011;18593;51.426;7.030;2023-07-13T07:46:38;8.57;;;3.17;;
32080;SDS011;18593;51.426;7.030;2023-07-13T07:49:06;14.75;;;3.97;;
32080;SDS011;18593;51.426;7.030;2023-07-13T07:51:33;10.85;;;3.17;;
32080;SDS011;18593;51.426;7.030;2023-07-13T07:54:02;11.02;;;3.47;;
32080;SDS011;18593;51.426;7.030;2023-07-13T07:56:30;13.85;;;3.25;;
32080;SDS011;18593;51.426;7.030;2023-07-13T07:58:58;10.82;;;3.47;;
32080;SDS011;18593;51.426;7.030;2023-07-13T08:01:26;12.10;;;3.50;;
32080;SDS011;18593;51.426;7.030;2023-07-13T08:03:53;12.45;;;3.53;;
32080;SDS011;18593;51.426;7.030;2023-07-13T08:06:20;11.95;;;3.60;;
32080;SDS011;18593;51.426;7.030;2023-07-13T08:08:48;13.73;;;3.33;;
32080;SDS011;18593;51.426;7.030;2023-07-13T08:11:16;6.78;;;2.75;;
32080;SDS011;18593;51.426;7.030;2023-07-13T08:13:44;15.15;;;3.58;;
32080;SDS011;18593;51.426;7.030;2023-07-13T08:16:11;10.63;;;3.00;;
32080;SDS011;18593;51.426;7.030;2023-07-13T08:18:38;12.98;;;3.55;;
32080;SDS011;18593;51.426;7.030;2023-07-13T08:21:06;10.48;;;3.13;;
32080;SDS011;18593;51.426;7.030;2023-07-13T08:23:34;9.27;;;2.92;;
32080;SDS011;18593;51.426;7.030;2023-07-13T08:26:02;9.85;;;3.05;;
32080;SDS011;18593;51.426;7.030;2023-07-13T08:28:32;16.83;;;3.65;;
32080;SDS011;18593;51.426;7.030;2023-07-13T08:31:00;11.82;;;3.30;;
32080;SDS011;18593;51.426;7.030;2023-07-13T08:33:29;11.05;;;2.90;;
32080;SDS011;18593;51.426;7.030;2023-07-13T08:35:56;9.48;;;3.00;;
32080;SDS011;18593;51.426;7.030;2023-07-13T08:38:23;9.40;;;2.92;;
32080;SDS011;18593;51.426;7.030;2023-07-13T08:40:51;12.65;;;3.22;;
32080;SDS011;18593;51.426;7.030;2023-07-13T08:43:23;9.00;;;3.30;;
32080;SDS011;18593;51.426;7.030;2023-07-13T08:45:57;10.85;;;3.35;;
32080;SDS011;18593;51.426;7.030;2023-07-13T08:48:36;12.35;;;3.20;;
32080;SDS011;18593;51.426;7.030;2023-07-13T08:51:10;8.10;;;3.08;;
32080;SDS011;18593;51.426;7.030;2023-07-13T08:53:54;15.10;;;3.05;;
32080;SDS011;18593;51.426;7.030;2023-07-13T08:56:27;10.00;;;3.17;;
32080;SDS011;18593;51.426;7.030;2023-07-13T08:58:57;10.70;;;3.67;;
32080;SDS011;18593;51.426;7.030;2023-07-13T09:01:33;15.75;;;3.10;;
32080;SDS011;18593;51.426;7.030;2023-07-13T09:07:05;11.50;;;2.97;;
32080;SDS011;18593;51.426;7.030;2023-07-13T09:09:46;11.80;;;3.40;;
32080;SDS011;18593;51.426;7.030;2023-07-13T09:12:25;15.07;;;3.05;;
32080;SDS011;18593;51.426;7.030;2023-07-13T09:15:02;8.40;;;2.90;;
32080;SDS011;18593;51.426;7.030;2023-07-13T09:17:34;11.27;;;2.90;;
32080;SDS011;18593;51.426;7.030;2023-07-13T09:20:10;9.65;;;3.05;;
32080;SDS011;18593;51.426;7.030;2023-07-13T09:22:49;11.77;;;3.05;;
32080;SDS011;18593;51.426;7.030;2023-07-13T09:25:21;11.75;;;3.22;;
32080;SDS011;18593;51.426;7.030;2023-07-13T09:27:57;12.60;;;2.80;;
32080;SDS011;18593;51.426;7.030;2023-07-13T09:30:31;12.50;;;2.83;;
32080;SDS011;18593;51.426;7.030;2023-07-13T09:33:06;8.80;;;2.70;;
32080;SDS011;18593;51.426;7.030;2023-07-13T09:35:34;10.85;;;3.05;;
32080;SDS011;18593;51.426;7.030;2023-07-13T09:38:04;9.65;;;3.10;;
32080;SDS011;18593;51.426;7.030;2023-07-13T09:40:56;16.05;;;3.00;;
32080;SDS011;18593;51.426;7.030;2023-07-13T09:43:37;9.93;;;2.95;;
32080;SDS011;18593;51.426;7.030;2023-07-13T09:46:07;8.18;;;2.72;;
32080;SDS011;18593;51.426;7.030;2023-07-13T09:48:49;10.68;;;3.42;;
32080;SDS011;18593;51.426;7.030;2023-07-13T09:51:16;12.77;;;2.90;;
32080;SDS011;18593;51.426;7.030;2023-07-13T09:53:44;8.60;;;3.05;;
32080;SDS011;18593;51.426;7.030;2023-07-13T09:56:20;9.15;;;3.47;;
32080;SDS011;18593;51.426;7.030;2023-07-13T09:58:49;8.57;;;3.10;;
32080;SDS011;18593;51.426;7.030;2023-07-13T10:01:17;10.50;;;3.00;;
32080;SDS011;18593;51.426;7.030;2023-07-13T10:04:01;11.98;;;3.00;;
32080;SDS011;18593;51.426;7.030;2023-07-13T10:06:36;9.68;;;3.08;;
32080;SDS011;18593;51.426;7.030;2023-07-13T10:09:04;10.25;;;3.72;;
32080;SDS011;18593;51.426;7.030;2023-07-13T10:11:35;10.57;;;3.30;;
32080;SDS011;18593;51.426;7.030;2023-07-13T10:14:09;17.95;;;4.00;;
32080;SDS011;18593;51.426;7.030;2023-07-13T10:16:41;9.55;;;2.72;;
32080;SDS011;18593;51.426;7.030;2023-07-13T10:19:13;10.07;;;3.13;;
32080;SDS011;18593;51.426;7.030;2023-07-13T10:21:50;11.23;;;3.50;;
32080;SDS011;18593;51.426;7.030;2023-07-13T10:24:21;8.23;;;2.92;;
32080;SDS011;18593;51.426;7.030;2023-07-13T10:26:53;8.70;;;2.97;;
32080;SDS011;18593;51.426;7.030;2023-07-13T10:29:28;10.75;;;3.35;;
32080;SDS011;18593;51.426;7.030;2023-07-13T10:32:00;10.48;;;2.78;;
32080;SDS011;18593;51.426;7.030;2023-07-13T10:34:29;13.15;;;3.28;;
32080;SDS011;18593;51.426;7.030;2023-07-13T10:36:58;10.50;;;2.70;;
32080;SDS011;18593;51.426;7.030;2023-07-13T10:39:28;11.68;;;3.75;;
32080;SDS011;18593;51.426;7.030;2023-07-13T10:41:58;10.40;;;3.05;;
32080;SDS011;18593;51.426;7.030;2023-07-13T10:44:31;11.57;;;2.80;;
32080;SDS011;18593;51.426;7.030;2023-07-13T10:47:04;9.30;;;3.20;;
32080;SDS011;18593;51.426;7.030;2023-07-13T10:49:35;11.60;;;3.03;;
32080;SDS011;18593;51.426;7.030;2023-07-13T10:52:04;11.93;;;3.10;;
32080;SDS011;18593;51.426;7.030;2023-07-13T10:54:32;12.60;;;3.63;;
32080;SDS011;18593;51.426;7.030;2023-07-13T10:57:16;12.88;;;3.15;;
32080;SDS011;18593;51.426;7.030;2023-07-13T10:59:47;12.52;;;3.03;;
32080;SDS011;18593;51.426;7.030;2023-07-13T11:04:53;14.20;;;2.88;;
32080;SDS011;18593;51.426;7.030;2023-07-13T11:07:24;8.57;;;3.22;;
32080;SDS011;18593;51.426;7.030;2023-07-13T11:09:54;8.02;;;2.70;;
32080;SDS011;18593;51.426;7.030;2023-07-13T11:12:28;9.43;;;2.67;;
32080;SDS011;18593;51.426;7.030;2023-07-13T11:15:27;6.63;;;2.67;;
32080;SDS011;18593;51.426;7.030;2023-07-13T11:18:02;11.07;;;2.70;;
32080;SDS011;18593;51.426;7.030;2023-07-13T11:20:33;9.82;;;2.60;;
32080;SDS011;18593;51.426;7.030;2023-07-13T11:23:08;10.18;;;3.13;;
32080;SDS011;18593;51.426;7.030;2023-07-13T11:25:58;9.27;;;2.78;;
32080;SDS011;18593;51.426;7.030;2023-07-13T11:28:29;7.72;;;2.50;;
32080;SDS011;18593;51.426;7.030;2023-07-13T11:31:02;8.38;;;2.88;;
32080;SDS011;18593;51.426;7.030;2023-07-13T11:36:32;11.05;;;2.78;;
32080;SDS011;18593;51.426;7.030;2023-07-13T11:39:10;10.13;;;3.08;;
32080;SDS011;18593;51.426;7.030;2023-07-13T11:41:49;8.35;;;2.90;;
32080;SDS011;18593;51.426;7.030;2023-07-13T11:44:21;8.63;;;2.50;;
32080;SDS011;18593;51.426;7.030;2023-07-13T11:46:51;9.38;;;2.50;;
32080;SDS011;18593;51.426;7.030;2023-07-13T11:49:21;7.80;;;2.57;;
32080;SDS011;18593;51.426;7.030;2023-07-13T11:51:53;9.35;;;2.80;;
32080;SDS011;18593;51.426;7.030;2023-07-13T11:54:23;8.93;;;2.42;;
32080;SDS011;18593;51.426;7.030;2023-07-13T11:56:54;8.32;;;2.80;;
32080;SDS011;18593;51.426;7.030;2023-07-13T12:01:53;8.18;;;2.60;;
32080;SDS011;18593;51.426;7.030;2023-07-13T12:04:23;8.90;;;2.22;;
32080;SDS011;18593;51.426;7.030;2023-07-13T12:06:58;6.80;;;1.92;;
32080;SDS011;18593;51.426;7.030;2023-07-13T12:09:32;9.27;;;2.25;;
32080;SDS011;18593;51.426;7.030;2023-07-13T12:12:01;7.35;;;2.20;;
32080;SDS011;18593;51.426;7.030;2023-07-13T12:14:33;8.23;;;2.40;;
32080;SDS011;18593;51.426;7.030;2023-07-13T12:17:00;6.03;;;1.90;;
32080;SDS011;18593;51.426;7.030;2023-07-13T12:19:34;8.82;;;2.25;;
32080;SDS011;18593;51.426;7.030;2023-07-13T12:22:04;6.07;;;2.42;;
32080;SDS011;18593;51.426;7.030;2023-07-13T12:24:35;8.70;;;2.28;;
32080;SDS011;18593;51.426;7.030;2023-07-13T12:27:04;12.77;;;2.30;;
32080;SDS011;18593;51.426;7.030;2023-07-13T12:29:32;8.68;;;2.50;;
32080;SDS011;18593;51.426;7.030;2023-07-13T12:31:59;5.32;;;1.92;;
32080;SDS011;18593;51.426;7.030;2023-07-13T12:34:27;7.90;;;1.95;;
32080;SDS011;18593;51.426;7.030;2023-07-13T12:36:54;5.00;;;2.00;;
32080;SDS011;18593;51.426;7.030;2023-07-13T12:39:28;5.88;;;2.00;;
32080;SDS011;18593;51.426;7.030;2023-07-13T12:42:10;6.40;;;2.20;;
32080;SDS011;18593;51.426;7.030;2023-07-13T12:44:49;6.00;;;2.30;;
32080;SDS011;18593;51.426;7.030;2023-07-13T12:47:19;7.88;;;2.20;;
32080;SDS011;18593;51.426;7.030;2023-07-13T12:49:48;6.88;;;2.15;;
32080;SDS011;18593;51.426;7.030;2023-07-13T12:52:20;10.82;;;2.00;;
32080;SDS011;18593;51.426;7.030;2023-07-13T12:54:57;7.10;;;2.00;;
32080;SDS011;18593;51.426;7.030;2023-07-13T12:57:29;7.10;;;2.33;;
32080;SDS011;18593;51.426;7.030;2023-07-13T12:59:56;7.53;;;2.05;;
32080;SDS011;18593;51.426;7.030;2023-07-13T13:02:26;6.05;;;1.85;;
32080;SDS011;18593;51.426;7.030;2023-07-13T13:04:57;10.52;;;2.08;;
32080;SDS011;18593;51.426;7.030;2023-07-13T13:07:25;4.95;;;1.92;;
32080;SDS011;18593;51.426;7.030;2023-07-13T13:09:52;6.75;;;2.08;;
32080;SDS011;18593;51.426;7.030;2023-07-13T13:12:21;7.82;;;1.95;;
32080;SDS011;18593;51.426;7.030;2023-07-13T13:14:50;7.72;;;2.20;;
32080;SDS011;18593;51.426;7.030;2023-07-13T13:17:19;7.63;;;1.85;;
32080;SDS011;18593;51.426;7.030;2023-07-13T13:19:52;5.60;;;2.00;;
32080;SDS011;18593;51.426;7.030;2023-07-13T13:22:19;8.52;;;1.90;;
32080;SDS011;18593;51.426;7.030;2023-07-13T13:24:47;11.50;;;2.30;;
32080;SDS011;18593;51.426;7.030;2023-07-13T13:27:18;6.32;;;2.22;;
32080;SDS011;18593;51.426;7.030;2023-07-13T13:29:50;7.65;;;2.17;;
32080;SDS011;18593;51.426;7.030;2023-07-13T13:32:18;10.32;;;2.38;;
32080;SDS011;18593;51.426;7.030;2023-07-13T13:34:46;9.82;;;2.60;;
32080;SDS011;18593;51.426;7.030;2023-07-13T13:37:16;7.55;;;2.30;;
32080;SDS011;18593;51.426;7.030;2023-07-13T13:39:46;6.43;;;2.10;;
32080;SDS011;18593;51.426;7.030;2023-07-13T13:42:14;8.55;;;3.13;;
32080;SDS011;18593;51.426;7.030;2023-07-13T13:44:43;10.43;;;2.40;;
32080;SDS011;18593;51.426;7.030;2023-07-13T13:47:17;12.23;;;2.58;;
32080;SDS011;18593;51.426;7.030;2023-07-13T13:49:55;7.45;;;2.50;;
32080;SDS011;18593;51.426;7.030;2023-07-13T13:52:23;6.47;;;2.45;;
32080;SDS011;18593;51.426;7.030;2023-07-13T13:54:51;6.30;;;2.55;;
32080;SDS011;18593;51.426;7.030;2023-07-13T13:57:21;5.18;;;2.17;;
32080;SDS011;18593;51.426;7.030;2023-07-13T13:59:51;7.72;;;2.70;;
32080;SDS011;18593;51.426;7.030;2023-07-13T14:02:21;8.45;;;3.15;;
32080;SDS011;18593;51.426;7.030;2023-07-13T14:04:53;6.65;;;2.90;;
32080;SDS011;18593;51.426;7.030;2023-07-13T14:07:23;5.60;;;2.72;;
32080;SDS011;18593;51.426;7.030;2023-07-13T14:09:51;7.68;;;2.47;;
32080;SDS011;18593;51.426;7.030;2023-07-13T14:12:19;11.10;;;3.05;;
32080;SDS011;18593;51.426;7.030;2023-07-13T14:14:47;8.50;;;2.80;;
32080;SDS011;18593;51.426;7.030;2023-07-13T14:17:22;6.03;;;2.50;;
32080;SDS011;18593;51.426;7.030;2023-07-13T14:19:53;13.27;;;3.95;;
32080;SDS011;18593;51.426;7.030;2023-07-13T14:22:22;13.15;;;4.57;;
32080;SDS011;18593;51.426;7.030;2023-07-13T14:24:51;11.82;;;4.20;;
32080;SDS011;18593;51.426;7.030;2023-07-13T14:27:19;7.82;;;3.22;;
32080;SDS011;18593;51.426;7.030;2023-07-13T14:29:47;10.73;;;4.07;;
32080;SDS011;18593;51.426;7.030;2023-07-13T14:32:14;11.15;;;3.80;;
32080;SDS011;18593;51.426;7.030;2023-07-13T14:34:44;12.40;;;3.40;;
32080;SDS011;18593;51.426;7.030;2023-07-13T14:37:12;11.30;;;3.67;;
32080;SDS011;18593;51.426;7.030;2023-07-13T14:39:42;10.70;;;3.60;;
32080;SDS011;18593;51.426;7.030;2023-07-13T14:42:10;10.48;;;4.10;;
32080;SDS011;18593;51.426;7.030;2023-07-13T14:44:38;9.48;;;4.13;;
32080;SDS011;18593;51.426;7.030;2023-07-13T14:47:06;11.20;;;3.58;;
32080;SDS011;18593;51.426;7.030;2023-07-13T14:49:35;8.65;;;3.95;;
32080;SDS011;18593;51.426;7.030;2023-07-13T14:52:08;8.65;;;4.25;;
32080;SDS011;18593;51.426;7.030;2023-07-13T14:54:39;10.05;;;3.97;;
32080;SDS011;18593;51.426;7.030;2023-07-13T14:57:12;9.25;;;3.95;;
32080;SDS011;18593;51.426;7.030;2023-07-13T14:59:41;11.45;;;4.35;;
32080;SDS011;18593;51.426;7.030;2023-07-13T15:02:13;9.27;;;4.05;;
32080;SDS011;18593;51.426;7.030;2023-07-13T15:04:44;9.20;;;4.10;;
32080;SDS011;18593;51.426;7.030;2023-07-13T15:07:12;10.05;;;4.40;;
32080;SDS011;18593;51.426;7.030;2023-07-13T15:09:42;9.10;;;4.07;;
32080;SDS011;18593;51.426;7.030;2023-07-13T15:12:09;7.43;;;3.80;;